createdAt,value
2018-11-26T00:01:01.511Z,63.97
2018-11-26T00:03:30.096Z,66.37
2018-11-26T00:05:58.710Z,61.50
2018-11-26T00:08:27.446Z,65.30
2018-11-26T00:12:01.814Z,61.17
2018-11-26T00:14:30.520Z,62.23
2018-11-26T00:16:59.136Z,66.00
2018-11-26T00:19:27.927Z,57.30
2018-11-26T00:21:56.549Z,68.27
2018-11-26T00:24:25.106Z,68.90
2018-11-26T00:26:53.722Z,63.00
2018-11-26T00:29:22.340Z,69.63
2018-11-26T00:31:50.860Z,69.03
2018-11-26T00:34:19.505Z,68.70
2018-11-26T00:36:48.234Z,63.67
2018-11-26T00:39:16.983Z,73.43
2018-11-26T00:41:45.654Z,75.30
2018-11-26T00:44:14.951Z,70.30
2018-11-26T00:46:43.551Z,69.00
2018-11-26T00:49:12.224Z,70.33
2018-11-26T00:51:40.799Z,60.23
2018-11-26T00:54:09.436Z,73.77
2018-11-26T00:56:38.001Z,76.20
2018-11-26T00:59:06.698Z,73.47
2018-11-26T01:01:35.240Z,71.03
2018-11-26T01:04:03.867Z,73.10
2018-11-26T01:06:32.464Z,77.40
2018-11-26T01:09:01.008Z,77.67
2018-11-26T01:11:29.626Z,77.33
2018-11-26T01:13:58.342Z,85.83
2018-11-26T01:16:26.911Z,85.33
2018-11-26T01:18:55.514Z,83.87
2018-11-26T01:21:24.057Z,97.63
2018-11-26T01:23:52.631Z,97.47
2018-11-26T01:26:21.194Z,90.20
2018-11-26T01:28:49.817Z,93.87
2018-11-26T01:31:18.355Z,110.43
2018-11-26T01:33:46.980Z,89.93
2018-11-26T01:36:15.555Z,101.90
2018-11-26T01:38:44.179Z,96.47
2018-11-26T01:41:12.821Z,112.97
2018-11-26T01:43:41.413Z,103.83
2018-11-26T01:46:09.961Z,102.83
2018-11-26T01:48:39.266Z,102.37
2018-11-26T01:51:08.020Z,100.93
2018-11-26T01:53:36.638Z,99.60
2018-11-26T01:56:05.712Z,93.90
2018-11-26T01:58:34.298Z,90.03
2018-11-26T02:01:02.960Z,102.20
2018-11-26T02:03:31.590Z,82.83
2018-11-26T02:06:00.205Z,87.77
2018-11-26T02:08:28.840Z,96.63
2018-11-26T02:10:57.605Z,96.40
2018-11-26T02:13:26.202Z,99.93
2018-11-26T02:15:55.049Z,84.50
2018-11-26T02:18:23.785Z,90.57
2018-11-26T02:20:52.473Z,88.00
2018-11-26T02:23:21.149Z,81.93
2018-11-26T02:25:49.757Z,88.10
2018-11-26T02:28:18.363Z,85.33
2018-11-26T02:30:46.963Z,86.10
2018-11-26T02:33:15.856Z,73.77
2018-11-26T02:35:44.453Z,76.07
2018-11-26T02:38:13.014Z,69.80
2018-11-26T02:40:41.590Z,81.27
2018-11-26T02:43:10.126Z,73.70
2018-11-26T02:45:38.768Z,73.97
2018-11-26T02:48:07.408Z,70.87
2018-11-26T02:50:36.029Z,73.60
2018-11-26T02:53:04.608Z,73.07
2018-11-26T02:55:33.365Z,69.93
2018-11-26T02:58:01.990Z,70.83
2018-11-26T03:00:30.605Z,73.33
2018-11-26T03:02:59.251Z,63.63
2018-11-26T03:05:29.694Z,70.37
2018-11-26T03:07:58.401Z,65.53
2018-11-26T03:10:27.085Z,69.97
2018-11-26T03:12:55.696Z,74.13
2018-11-26T03:15:24.327Z,78.60
2018-11-26T03:17:52.940Z,73.70
2018-11-26T03:20:21.597Z,68.73
2018-11-26T03:22:50.285Z,70.57
2018-11-26T03:25:18.935Z,70.37
2018-11-26T03:27:47.528Z,70.53
2018-11-26T03:30:19.191Z,74.93
2018-11-26T03:32:47.794Z,60.10
2018-11-26T03:35:16.440Z,63.20
2018-11-26T03:37:45.117Z,56.67
2018-11-26T03:40:14.223Z,63.47
2018-11-26T03:42:43.311Z,63.77
2018-11-26T03:45:15.063Z,59.60
2018-11-26T03:47:43.789Z,60.70
2018-11-26T03:50:13.187Z,57.07
2018-11-26T03:52:42.856Z,66.10
2018-11-26T03:55:11.997Z,68.97
2018-11-26T03:57:40.592Z,79.57
2018-11-26T04:00:14.430Z,74.17
2018-11-26T04:02:43.043Z,76.50
2018-11-26T04:05:11.963Z,76.37
2018-11-26T04:07:40.756Z,71.07
2018-11-26T04:10:10.513Z,77.90
2018-11-26T04:12:39.040Z,75.37
2018-11-26T04:15:09.774Z,68.10
2018-11-26T04:17:38.430Z,74.33
2018-11-26T04:20:08.120Z,67.43
2018-11-26T04:22:36.753Z,66.90
2018-11-26T04:25:06.261Z,63.10
2018-11-26T04:27:34.919Z,66.40
2018-11-26T04:30:03.673Z,69.20
2018-11-26T04:32:32.278Z,65.00
2018-11-26T04:35:00.844Z,69.47
2018-11-26T04:37:29.424Z,59.73
2018-11-26T04:39:58.016Z,61.43
2018-11-26T04:42:26.656Z,68.40
2018-11-26T04:44:55.270Z,66.00
2018-11-26T04:47:23.880Z,56.13
2018-11-26T04:49:53.174Z,61.03
2018-11-26T04:52:21.816Z,65.30
2018-11-26T04:54:50.376Z,61.87
2018-11-26T04:57:18.960Z,60.60
2018-11-26T04:59:47.555Z,54.90
2018-11-26T05:02:16.452Z,59.43
2018-11-26T05:04:45.059Z,57.13
2018-11-26T05:07:13.606Z,64.63
2018-11-26T05:09:42.195Z,59.23
2018-11-26T05:12:10.781Z,55.50
2018-11-26T05:14:39.364Z,69.37
2018-11-26T05:17:07.931Z,62.07
2018-11-26T05:19:36.483Z,69.07
2018-11-26T05:22:05.969Z,64.73
2018-11-26T05:24:34.544Z,68.77
2018-11-26T05:27:03.115Z,60.97
2018-11-26T05:29:31.637Z,59.80
2018-11-26T05:32:00.172Z,56.67
2018-11-26T05:34:28.776Z,60.33
2018-11-26T05:36:57.351Z,68.27
2018-11-26T05:39:25.919Z,62.40
2018-11-26T05:41:54.748Z,65.53
2018-11-26T05:44:23.512Z,61.30
2018-11-26T05:46:52.144Z,63.83
2018-11-26T05:49:20.713Z,64.80
2018-11-26T05:51:49.230Z,59.40
2018-11-26T05:54:17.756Z,64.40
2018-11-26T05:56:46.316Z,61.90
2018-11-26T05:59:14.850Z,67.93
2018-11-26T06:01:43.379Z,74.37
2018-11-26T06:04:12.067Z,71.63
2018-11-26T06:06:40.693Z,68.83
2018-11-26T06:09:10.918Z,74.33
2018-11-26T06:11:40.265Z,68.73
2018-11-26T06:14:08.963Z,66.07
2018-11-26T06:16:37.941Z,64.43
2018-11-26T06:19:06.819Z,71.67
2018-11-26T06:21:35.477Z,71.50
2018-11-26T06:24:04.050Z,67.70
2018-11-26T06:26:32.606Z,65.20
2018-11-26T06:29:01.228Z,72.17
2018-11-26T06:31:29.854Z,71.30
2018-11-26T06:33:58.389Z,70.33
2018-11-26T06:36:26.912Z,71.07
2018-11-26T06:38:55.829Z,71.07
2018-11-26T06:41:24.336Z,78.27
2018-11-26T06:43:52.928Z,75.13
2018-11-26T06:46:21.464Z,77.10
2018-11-26T06:48:49.992Z,79.77
2018-11-26T06:51:18.537Z,76.20
2018-11-26T06:53:47.137Z,85.73
2018-11-26T06:56:15.678Z,73.20
2018-11-26T06:58:44.301Z,87.67
2018-11-26T07:01:12.909Z,74.97
2018-11-26T07:03:41.520Z,81.37
2018-11-26T07:06:10.033Z,78.53
2018-11-26T07:08:38.585Z,64.57
2018-11-26T07:11:07.147Z,81.20
2018-11-26T07:13:35.723Z,72.27
2018-11-26T07:16:04.310Z,83.67
2018-11-26T07:18:32.827Z,78.47
2018-11-26T07:21:01.385Z,73.37
2018-11-26T07:23:29.951Z,76.00
2018-11-26T07:25:58.543Z,72.43
2018-11-26T07:28:27.096Z,85.30
2018-11-26T07:30:55.588Z,78.90
2018-11-26T07:33:24.161Z,71.27
2018-11-26T07:35:52.768Z,69.90
2018-11-26T07:38:21.276Z,74.07
2018-11-26T07:40:49.792Z,73.33
2018-11-26T07:43:19.193Z,74.60
2018-11-26T07:45:47.678Z,75.30
2018-11-26T07:48:16.197Z,73.50
2018-11-26T07:50:44.717Z,83.97
2018-11-26T07:53:13.264Z,84.97
2018-11-26T07:55:41.907Z,76.13
2018-11-26T07:58:10.425Z,76.43
2018-11-26T08:00:38.963Z,76.23
2018-11-26T08:03:07.641Z,80.17
2018-11-26T08:05:36.155Z,74.83
2018-11-26T08:08:04.690Z,82.37
2018-11-26T08:10:33.295Z,75.00
2018-11-26T08:13:01.861Z,66.63
2018-11-26T08:15:30.399Z,82.50
2018-11-26T08:17:58.990Z,78.33
2018-11-26T08:20:27.526Z,80.60
2018-11-26T08:22:56.089Z,80.37
2018-11-26T08:25:25.047Z,94.40
2018-11-26T08:27:53.709Z,91.50
2018-11-26T08:30:27.541Z,89.10
2018-11-26T08:33:00.770Z,89.67
2018-11-26T08:35:29.896Z,88.07
2018-11-26T08:38:03.896Z,77.93
2018-11-26T08:40:37.714Z,89.13
2018-11-26T08:43:07.303Z,89.27
2018-11-26T08:45:37.013Z,93.73
2018-11-26T08:48:10.394Z,92.30
2018-11-26T08:50:41.571Z,66.67
2018-11-26T08:53:10.127Z,91.77
2018-11-26T08:55:38.723Z,73.80
2018-11-26T08:58:07.253Z,75.57
2018-11-26T09:00:35.707Z,92.60
2018-11-26T09:03:10.469Z,92.03
2018-11-26T09:05:45.062Z,88.37
2018-11-26T09:08:14.664Z,87.97
2018-11-26T09:10:43.215Z,86.50
2018-11-26T09:13:11.725Z,81.60
2018-11-26T09:15:40.438Z,89.63
2018-11-26T09:18:09.945Z,70.53
2018-11-26T09:20:38.520Z,84.30
2018-11-26T09:23:07.169Z,85.57
2018-11-26T09:25:35.668Z,80.90
2018-11-26T09:28:04.199Z,83.43
2018-11-26T09:30:32.783Z,76.43
2018-11-26T09:33:01.315Z,76.23
2018-11-26T09:35:29.937Z,77.03
2018-11-26T09:37:58.464Z,73.73
2018-11-26T09:40:26.967Z,89.43
2018-11-26T09:42:55.478Z,73.07
2018-11-26T09:45:24.025Z,74.67
2018-11-26T09:47:52.583Z,74.93
2018-11-26T09:50:22.437Z,71.60
2018-11-26T09:52:50.965Z,63.73
2018-11-26T09:55:19.614Z,79.47
2018-11-26T09:57:48.125Z,68.60
2018-11-26T10:00:19.117Z,75.63
2018-11-26T10:02:48.744Z,62.87
2018-11-26T10:05:21.415Z,65.90
2018-11-26T10:07:49.995Z,66.77
2018-11-26T10:10:18.585Z,66.97
2018-11-26T10:12:47.267Z,68.53
2018-11-26T10:15:24.771Z,58.33
2018-11-26T10:17:53.444Z,60.17
2018-11-26T10:20:21.976Z,64.47
2018-11-26T10:22:51.815Z,59.10
2018-11-26T10:25:21.395Z,62.40
2018-11-26T10:27:49.931Z,56.27
2018-11-26T10:30:20.284Z,51.87
2018-11-26T10:32:50.232Z,49.73
2018-11-26T10:35:19.478Z,49.57
2018-11-26T10:37:48.148Z,44.13
2018-11-26T10:40:22.397Z,37.20
2018-11-26T10:42:51.002Z,44.07
2018-11-26T10:45:21.435Z,39.77
2018-11-26T10:47:49.992Z,36.20
2018-11-26T10:50:21.000Z,37.00
2018-11-26T10:52:52.785Z,37.23
2018-11-26T10:55:24.681Z,31.53
2018-11-26T10:57:53.214Z,25.37
2018-11-26T11:00:26.994Z,35.63
2018-11-26T11:02:55.866Z,38.67
2018-11-26T11:05:24.162Z,41.23
2018-11-26T11:07:52.680Z,38.03
2018-11-26T11:10:23.211Z,36.23
2018-11-26T11:12:51.960Z,29.63
2018-11-26T11:15:20.583Z,37.63
2018-11-26T11:17:49.165Z,40.40
2018-11-26T11:20:18.732Z,33.30
2018-11-26T11:22:47.282Z,34.60
2018-11-26T11:25:16.744Z,35.03
2018-11-26T11:27:45.464Z,38.07
2018-11-26T11:30:17.925Z,39.83
2018-11-26T11:32:46.425Z,36.90
2018-11-26T11:35:15.555Z,36.03
2018-11-26T11:37:45.110Z,41.80
2018-11-26T11:40:19.713Z,53.27
2018-11-26T11:42:48.501Z,41.00
2018-11-26T11:45:17.282Z,40.73
2018-11-26T11:47:45.803Z,43.60
2018-11-26T11:50:16.499Z,35.10
2018-11-26T11:52:45.342Z,34.33
2018-11-26T11:55:15.958Z,35.63
2018-11-26T11:57:44.525Z,34.27
2018-11-26T12:00:35.327Z,42.03
2018-11-26T12:03:06.080Z,39.83
2018-11-26T12:05:34.618Z,40.90
2018-11-26T12:08:03.236Z,37.50
2018-11-26T12:10:31.824Z,43.33
2018-11-26T12:13:00.344Z,43.27
2018-11-26T12:15:28.938Z,42.97
2018-11-26T12:17:57.474Z,41.20
2018-11-26T12:20:26.003Z,43.00
2018-11-26T12:22:54.518Z,35.73
2018-11-26T12:25:23.078Z,31.03
2018-11-26T12:27:51.700Z,35.90
2018-11-26T12:30:22.344Z,33.77
2018-11-26T12:32:50.891Z,33.50
2018-11-26T12:35:19.428Z,32.77
2018-11-26T12:37:48.029Z,37.73
2018-11-26T12:40:17.929Z,31.97
2018-11-26T12:42:46.625Z,32.93
2018-11-26T12:45:16.508Z,36.03
2018-11-26T12:47:45.084Z,35.90
2018-11-26T12:50:13.662Z,35.90
2018-11-26T12:52:42.186Z,35.93
2018-11-26T12:55:14.305Z,36.90
2018-11-26T12:57:43.682Z,33.83
2018-11-26T13:00:14.329Z,43.57
2018-11-26T13:02:43.134Z,38.57
2018-11-26T13:05:13.109Z,37.73
2018-11-26T13:07:41.719Z,41.23
2018-11-26T13:10:13.596Z,39.93
2018-11-26T13:12:42.351Z,37.73
2018-11-26T13:15:13.173Z,40.03
2018-11-26T13:17:41.749Z,38.93
2018-11-26T13:20:13.467Z,40.33
2018-11-26T13:22:42.140Z,41.30
2018-11-26T13:25:12.826Z,42.07
2018-11-26T13:27:42.863Z,43.20
2018-11-26T13:30:28.303Z,44.47
2018-11-26T13:32:58.023Z,44.43
2018-11-26T13:35:26.726Z,40.27
2018-11-26T13:37:55.312Z,45.67
2018-11-26T13:40:23.940Z,48.83
2018-11-26T13:42:52.778Z,47.97
2018-11-26T13:45:26.920Z,46.13
2018-11-26T13:47:55.405Z,52.47
2018-11-26T13:50:28.029Z,48.80
2018-11-26T13:52:56.908Z,46.00
2018-11-26T13:55:25.487Z,48.10
2018-11-26T13:57:54.056Z,47.77
2018-11-26T14:00:22.591Z,55.43
2018-11-26T14:02:51.132Z,51.90
2018-11-26T14:05:20.079Z,47.97
2018-11-26T14:07:48.760Z,48.00
2018-11-26T14:10:24.570Z,52.23
2018-11-26T14:12:57.873Z,54.10
2018-11-26T14:15:26.482Z,51.17
2018-11-26T14:17:55.055Z,57.67
2018-11-26T14:20:23.581Z,54.50
2018-11-26T14:22:52.557Z,55.20
2018-11-26T14:25:21.235Z,56.53
2018-11-26T14:27:49.962Z,51.20
2018-11-26T14:30:23.129Z,55.17
2018-11-26T14:32:51.780Z,50.63
2018-11-26T14:35:20.464Z,55.17
2018-11-26T14:37:50.438Z,56.27
2018-11-26T14:40:20.819Z,52.93
2018-11-26T14:42:49.571Z,54.97
2018-11-26T14:45:18.455Z,55.70
2018-11-26T14:47:53.329Z,52.33
2018-11-26T14:50:21.934Z,50.93
2018-11-26T14:52:50.861Z,49.37
2018-11-26T14:55:27.558Z,55.80
2018-11-26T14:57:56.105Z,60.20
2018-11-26T15:00:26.258Z,52.03
2018-11-26T15:02:54.830Z,52.60
2018-11-26T15:05:23.784Z,55.13
2018-11-26T15:07:52.304Z,46.43
2018-11-26T15:10:22.865Z,51.57
2018-11-26T15:12:51.481Z,48.70
2018-11-26T15:15:27.046Z,51.47
2018-11-26T15:17:55.605Z,50.67
2018-11-26T15:20:27.843Z,54.47
2018-11-26T15:22:58.980Z,46.53
2018-11-26T15:25:29.601Z,57.00
2018-11-26T15:27:59.666Z,48.87
2018-11-26T15:30:28.326Z,52.53
2018-11-26T15:32:57.570Z,51.83
2018-11-26T15:35:27.618Z,54.97
2018-11-26T15:37:56.928Z,50.13
2018-11-26T15:40:26.960Z,48.67
2018-11-26T15:42:56.887Z,51.57
2018-11-26T15:45:27.210Z,47.17
2018-11-26T15:47:57.155Z,49.47
2018-11-26T15:50:25.858Z,51.93
2018-11-26T15:52:54.531Z,50.13
2018-11-26T15:55:23.324Z,48.93
2018-11-26T15:57:52.505Z,47.50
2018-11-26T16:00:25.437Z,55.90
2018-11-26T16:02:54.210Z,53.80
2018-11-26T16:05:26.474Z,50.13
2018-11-26T16:08:02.686Z,49.77
2018-11-26T16:10:31.344Z,50.13
2018-11-26T16:13:01.579Z,55.33
2018-11-26T16:15:35.281Z,45.20
2018-11-26T16:18:06.065Z,45.03
2018-11-26T16:20:34.665Z,48.93
2018-11-26T16:23:03.245Z,48.37
2018-11-26T16:25:31.825Z,43.27
2018-11-26T16:28:00.391Z,42.97
2018-11-26T16:30:28.995Z,48.00
2018-11-26T16:32:58.858Z,47.60
2018-11-26T16:35:31.972Z,46.30
2018-11-26T16:38:00.970Z,44.27
2018-11-26T16:40:31.132Z,46.20
2018-11-26T16:42:59.813Z,41.90
2018-11-26T16:45:28.977Z,49.63
2018-11-26T16:47:58.449Z,46.67
2018-11-26T16:50:29.133Z,39.73
2018-11-26T16:52:57.715Z,43.40
2018-11-26T16:55:26.329Z,40.90
2018-11-26T16:57:54.950Z,47.07
2018-11-26T17:00:29.725Z,49.67
2018-11-26T17:03:00.801Z,43.50
2018-11-26T17:05:31.045Z,46.23
2018-11-26T17:08:00.638Z,46.97
2018-11-26T17:10:29.266Z,46.37
2018-11-26T17:12:57.774Z,45.50
2018-11-26T17:15:26.414Z,44.93
2018-11-26T17:17:54.972Z,42.03
2018-11-26T17:20:23.644Z,45.47
2018-11-26T17:22:52.416Z,47.50
2018-11-26T17:25:21.075Z,45.17
2018-11-26T17:27:49.723Z,46.60
2018-11-26T17:30:22.308Z,50.50
2018-11-26T17:32:52.331Z,49.77
2018-11-26T17:35:21.016Z,51.03
2018-11-26T17:37:50.034Z,55.57
2018-11-26T17:40:20.758Z,48.63
2018-11-26T17:42:49.626Z,51.00
2018-11-26T17:45:18.765Z,51.67
2018-11-26T17:47:48.944Z,49.70
2018-11-26T17:50:22.053Z,54.43
2018-11-26T17:52:51.423Z,52.00
2018-11-26T17:55:19.988Z,46.60
2018-11-26T17:57:48.824Z,43.33
2018-11-26T18:00:19.928Z,48.70
2018-11-26T18:02:49.541Z,46.03
2018-11-26T18:05:19.900Z,47.77
2018-11-26T18:07:58.623Z,42.97
2018-11-26T18:10:27.341Z,49.73
2018-11-26T18:12:55.980Z,47.73
2018-11-26T18:15:24.645Z,47.53
2018-11-26T18:17:53.215Z,45.93
2018-11-26T18:20:22.785Z,49.63
2018-11-26T18:22:53.384Z,49.90
2018-11-26T18:25:23.078Z,44.17
2018-11-26T18:27:57.685Z,52.50
2018-11-26T18:30:45.067Z,49.18
2018-11-26T18:33:13.847Z,45.67
2018-11-26T18:35:43.220Z,44.87
2018-11-26T18:38:11.833Z,46.28
2018-11-26T18:40:41.694Z,45.53
2018-11-26T18:43:10.730Z,48.60
2018-11-26T18:48:20.991Z,43.27
2018-11-26T18:50:50.801Z,41.17
2018-11-26T18:53:19.487Z,45.47
2018-11-26T18:55:48.311Z,38.40
2018-11-26T18:58:20.836Z,41.33
2018-11-26T19:00:55.395Z,35.40
2018-11-26T19:03:24.439Z,36.33
2018-11-26T19:05:54.575Z,38.60
2018-11-26T19:08:24.241Z,39.00
2018-11-26T19:11:06.721Z,42.23
2018-11-26T19:13:45.197Z,39.60
2018-11-26T19:16:19.804Z,41.53
2018-11-26T19:18:48.962Z,49.23
2018-11-26T19:21:26.799Z,40.83
2018-11-26T19:23:56.160Z,39.67
2018-11-26T19:26:25.835Z,45.27
2018-11-26T19:28:54.116Z,42.57
2018-11-26T19:31:27.147Z,42.50
2018-11-26T19:33:55.975Z,47.73
2018-11-26T19:36:24.762Z,42.80
2018-11-26T19:38:53.545Z,45.13
2018-11-26T19:41:29.502Z,46.93
2018-11-26T19:44:11.998Z,49.43
2018-11-26T19:46:46.123Z,41.27
2018-11-26T19:49:15.330Z,49.33
2018-11-26T19:58:03.846Z,50.03
2018-11-26T20:00:35.262Z,57.07
2018-11-26T20:09:08.398Z,58.53
2018-11-26T20:12:23.607Z,45.10
2018-11-26T20:14:55.122Z,49.43
2018-11-26T20:17:24.300Z,52.30
2018-11-26T20:19:55.046Z,52.37
2018-11-26T20:22:24.249Z,55.57
2018-11-26T20:24:53.548Z,60.17
2018-11-26T20:27:22.406Z,56.00
2018-11-26T20:29:51.540Z,55.20
2018-11-26T20:32:21.760Z,50.70
2018-11-26T20:34:52.241Z,50.60
2018-11-26T20:37:21.633Z,55.30
2018-11-26T20:53:47.355Z,58.70
2018-11-26T20:56:18.257Z,53.30
2018-11-26T20:58:47.583Z,46.93
2018-11-26T21:01:16.543Z,51.87
2018-11-26T21:03:45.837Z,56.20
2018-11-26T21:06:15.002Z,53.50
2018-11-26T21:08:45.684Z,51.37
2018-11-26T21:11:14.722Z,57.23
2018-11-26T21:13:45.041Z,49.80
2018-11-26T21:16:13.795Z,57.00
2018-11-26T21:18:42.827Z,51.23
2018-11-26T21:21:11.597Z,50.80
2018-11-26T21:23:42.610Z,50.77
2018-11-26T21:26:11.346Z,54.57
2018-11-26T21:28:41.302Z,48.90
2018-11-26T21:31:10.478Z,43.47
2018-11-26T21:33:39.178Z,49.13
2018-11-26T21:36:08.118Z,52.00
2018-11-26T21:38:38.751Z,47.97
2018-11-26T21:41:07.595Z,47.30
2018-11-26T21:43:36.242Z,50.37
2018-11-26T21:46:05.258Z,51.13
2018-11-26T21:48:34.007Z,48.57
2018-11-26T21:51:02.951Z,49.23
2018-11-26T21:53:32.247Z,46.73
2018-11-26T21:56:00.909Z,45.60
2018-11-26T21:58:40.398Z,36.90
2018-11-26T22:01:10.093Z,48.17
2018-11-26T22:03:57.546Z,49.33
2018-11-26T22:06:26.106Z,47.63
2018-11-26T22:08:55.598Z,54.33
2018-11-26T22:11:23.994Z,50.17
2018-11-26T22:13:52.569Z,51.93
2018-11-26T22:16:21.225Z,51.33
2018-11-26T22:18:51.072Z,53.63
2018-11-26T22:21:19.254Z,48.60
2018-11-26T22:23:48.112Z,43.77
2018-11-26T22:28:49.902Z,47.50
2018-11-26T22:31:18.798Z,48.23
2018-11-26T22:33:47.366Z,46.53
2018-11-26T22:36:15.992Z,46.17
2018-11-26T22:38:45.163Z,45.73
2018-11-26T22:41:20.194Z,47.43
2018-11-26T22:43:53.524Z,43.20
2018-11-26T22:46:25.461Z,50.97
2018-11-26T22:48:54.851Z,41.63
2018-11-26T22:51:24.436Z,43.23
2018-11-26T22:53:53.051Z,49.87
2018-11-26T22:56:21.698Z,46.27
2018-11-26T22:58:50.421Z,38.43
2018-11-26T23:01:19.163Z,44.17
2018-11-26T23:03:47.795Z,43.83
2018-11-26T23:06:16.385Z,45.10
2018-11-26T23:08:45.013Z,40.83
2018-11-26T23:11:13.561Z,46.27
2018-11-26T23:13:43.162Z,39.47
2018-11-26T23:16:11.974Z,43.13
2018-11-26T23:18:40.722Z,39.73
2018-11-26T23:21:09.434Z,39.83
2018-11-26T23:23:38.049Z,39.07
2018-11-26T23:26:06.864Z,37.97
2018-11-26T23:28:35.427Z,35.73
2018-11-26T23:31:04.175Z,36.37
2018-11-26T23:33:32.732Z,35.43
2018-11-26T23:36:01.587Z,38.07
2018-11-26T23:38:30.251Z,35.87
2018-11-26T23:40:58.786Z,38.57
2018-11-26T23:43:27.326Z,40.87
2018-11-26T23:45:55.925Z,38.30
2018-11-26T23:48:24.563Z,38.27
2018-11-26T23:50:53.277Z,43.17
2018-11-26T23:53:22.973Z,37.20
2018-11-26T23:55:51.529Z,36.43
2018-11-26T23:58:20.332Z,39.63
